Time;durP1;ratioP1;P1;durP2;ratioP2;P2;SDS_P1;SDS_P2;PMS_P1;PMS_P2;Temp;Humidity;BMP_temperature;BMP_pressure;BME280_temperature;BME280_humidity;BME280_pressure;Samples;Min_cycle;Max_cycle;Signal;HPM_P1;HPM_P2
2023/07/23 00:01:25;;;;;;;11.60;7.25;;;15.30;99.90;;;;;;5002339;28;20555;-60
2023/07/23 00:03:51;;;;;;;12.75;7.80;;;15.30;99.90;;;;;;5019855;28;20052;-59
2023/07/23 00:06:17;;;;;;;12.07;7.40;;;15.30;99.90;;;;;;5008999;28;20631;-59
2023/07/23 00:08:43;;;;;;;12.70;8.32;;;15.30;99.90;;;;;;5022261;28;20040;-60
2023/07/23 00:11:08;;;;;;;13.52;8.00;;;15.30;99.90;;;;;;5008419;28;20088;-58
2023/07/23 00:13:34;;;;;;;13.60;7.72;;;15.30;99.90;;;;;;5006484;28;20060;-59
2023/07/23 00:16:00;;;;;;;10.45;7.75;;;15.30;99.90;;;;;;5009029;28;20447;-58
2023/07/23 00:18:26;;;;;;;12.27;7.30;;;15.30;99.90;;;;;;4983413;28;20049;-60
2023/07/23 00:20:54;;;;;;;11.85;7.80;;;15.30;99.90;;;;;;5009167;28;20052;-59
2023/07/23 00:23:20;;;;;;;12.77;8.35;;;15.30;99.90;;;;;;5013398;28;20052;-58
2023/07/23 00:25:45;;;;;;;13.20;8.15;;;15.20;99.90;;;;;;5006948;28;20046;-60
2023/07/23 00:28:11;;;;;;;12.95;8.80;;;15.20;99.90;;;;;;5008405;28;20045;-59
2023/07/23 00:30:37;;;;;;;10.35;7.90;;;15.20;99.90;;;;;;5006355;28;20244;-58
2023/07/23 00:33:03;;;;;;;11.75;8.05;;;15.20;99.90;;;;;;5026507;28;20099;-60
2023/07/23 00:35:31;;;;;;;12.98;7.47;;;15.20;99.90;;;;;;5011586;28;20038;-58
2023/07/23 00:37:57;;;;;;;12.85;8.10;;;15.20;99.90;;;;;;5006662;28;20512;-60
2023/07/23 00:40:23;;;;;;;12.98;8.00;;;15.20;99.90;;;;;;5025188;28;20036;-59
2023/07/23 00:42:48;;;;;;;11.88;7.53;;;15.20;99.90;;;;;;5006265;28;20471;-59
2023/07/23 00:45:14;;;;;;;12.02;7.30;;;15.20;99.90;;;;;;4991117;28;20411;-59
2023/07/23 00:47:42;;;;;;;17.38;7.97;;;15.10;99.90;;;;;;5007327;28;20164;-59
2023/07/23 00:50:11;;;;;;;12.27;7.85;;;15.10;99.90;;;;;;5025639;28;20049;-59
2023/07/23 00:52:37;;;;;;;13.20;8.95;;;15.10;99.90;;;;;;4980516;28;20056;-60
2023/07/23 00:55:03;;;;;;;11.55;7.72;;;15.10;99.90;;;;;;5011300;28;20041;-59
2023/07/23 00:57:29;;;;;;;11.15;7.35;;;15.10;99.90;;;;;;5007346;28;20045;-58
2023/07/23 00:59:56;;;;;;;11.10;6.97;;;15.10;99.90;;;;;;4996837;28;20038;-60
2023/07/23 01:02:25;;;;;;;10.75;6.90;;;15.10;99.90;;;;;;5011919;28;20049;-59
2023/07/23 01:04:51;;;;;;;9.90;7.13;;;15.10;99.90;;;;;;5007286;28;20759;-59
2023/07/23 01:07:35;;;;;;;12.27;7.40;;;15.10;99.90;;;;;;5024497;28;20489;-59
2023/07/23 01:10:04;;;;;;;10.40;6.88;;;15.20;99.90;;;;;;5009106;28;20029;-59
2023/07/23 01:12:31;;;;;;;12.70;7.60;;;15.10;99.90;;;;;;5010457;28;20034;-59
2023/07/23 01:14:59;;;;;;;11.68;7.72;;;15.10;99.90;;;;;;5008920;28;20041;-59
2023/07/23 01:17:25;;;;;;;13.57;8.40;;;15.10;99.90;;;;;;4993743;28;20045;-57
2023/07/23 01:20:06;;;;;;;13.50;8.32;;;15.10;99.90;;;;;;5007735;28;20295;-59
2023/07/23 01:22:36;;;;;;;12.35;8.00;;;15.20;99.90;;;;;;5000011;28;20037;-59
2023/07/23 01:25:03;;;;;;;13.98;9.00;;;15.10;99.90;;;;;;4987913;28;20473;-59
2023/07/23 01:27:29;;;;;;;14.40;8.60;;;15.10;99.90;;;;;;5003014;28;20041;-60
2023/07/23 01:29:54;;;;;;;12.75;8.00;;;15.20;99.90;;;;;;5007677;28;20373;-60
2023/07/23 01:32:20;;;;;;;14.27;8.27;;;15.10;99.90;;;;;;5007544;28;20405;-58
2023/07/23 01:34:46;;;;;;;15.18;8.95;;;15.20;99.90;;;;;;5004980;28;20053;-60
2023/07/23 01:37:12;;;;;;;12.68;8.02;;;15.20;99.90;;;;;;5026577;28;20048;-60
2023/07/23 01:39:38;;;;;;;11.90;7.93;;;15.20;99.90;;;;;;5005617;28;20052;-60
2023/07/23 01:42:08;;;;;;;11.93;7.40;;;15.20;99.90;;;;;;5008528;28;20049;-58
2023/07/23 01:44:33;;;;;;;11.52;7.20;;;15.20;99.90;;;;;;5009218;28;20037;-60
2023/07/23 01:46:59;;;;;;;11.07;7.72;;;15.20;99.90;;;;;;5002886;28;20111;-59
2023/07/23 01:49:24;;;;;;;10.77;7.47;;;15.20;99.90;;;;;;4993120;28;20508;-59
2023/07/23 01:51:50;;;;;;;11.60;7.63;;;15.30;99.90;;;;;;4987485;28;20042;-60
2023/07/23 01:54:16;;;;;;;11.23;7.82;;;15.20;99.90;;;;;;4989896;28;20072;-58
2023/07/23 01:57:03;;;;;;;12.73;7.68;;;15.30;99.90;;;;;;4994382;28;20037;-58
2023/07/23 01:59:28;;;;;;;13.35;8.43;;;15.30;99.90;;;;;;5003800;28;20140;-59
2023/07/23 02:01:54;;;;;;;13.93;8.75;;;15.30;99.90;;;;;;5023344;28;20133;-59
2023/07/23 02:04:23;;;;;;;13.52;8.02;;;15.30;99.90;;;;;;5026942;28;20103;-59
2023/07/23 02:06:49;;;;;;;11.70;8.20;;;15.30;99.90;;;;;;5020426;28;20037;-59
2023/07/23 02:09:14;;;;;;;11.50;7.93;;;15.30;99.90;;;;;;5003351;28;20057;-58
2023/07/23 02:11:40;;;;;;;10.63;7.55;;;15.30;99.90;;;;;;5002019;28;20045;-60
2023/07/23 02:14:06;;;;;;;12.75;8.20;;;15.20;99.90;;;;;;4977224;28;20516;-59
2023/07/23 02:16:31;;;;;;;12.40;7.38;;;15.20;99.90;;;;;;5004216;28;20091;-58
2023/07/23 02:18:59;;;;;;;17.08;7.95;;;15.20;99.90;;;;;;5004197;28;20373;-58
2023/07/23 02:21:25;;;;;;;12.13;7.75;;;15.20;99.90;;;;;;5006697;28;20045;-57
2023/07/23 02:23:51;;;;;;;11.45;7.90;;;15.20;99.90;;;;;;5004309;28;20517;-60
2023/07/23 02:26:17;;;;;;;13.15;7.32;;;15.10;99.90;;;;;;5007354;28;20063;-59
2023/07/23 02:28:43;;;;;;;12.95;6.70;;;15.10;99.90;;;;;;4987219;28;20080;-58
2023/07/23 02:31:09;;;;;;;12.30;7.22;;;15.10;99.90;;;;;;5008798;28;20045;-59
2023/07/23 02:33:35;;;;;;;12.63;7.28;;;15.10;99.90;;;;;;4990400;28;20069;-60
2023/07/23 02:36:02;;;;;;;11.60;7.28;;;15.10;99.90;;;;;;4993086;28;20445;-58
2023/07/23 02:38:28;;;;;;;13.55;7.18;;;15.10;99.90;;;;;;5005319;28;20073;-59
2023/07/23 02:41:01;;;;;;;10.43;7.10;;;15.10;99.90;;;;;;5021814;28;20309;-59
2023/07/23 02:43:30;;;;;;;10.05;6.88;;;15.10;99.90;;;;;;5022906;28;20114;-57
2023/07/23 02:45:55;;;;;;;12.25;7.60;;;15.10;99.90;;;;;;5004837;28;20124;-59
2023/07/23 02:48:21;;;;;;;10.65;6.85;;;15.10;99.90;;;;;;5008828;28;20128;-59
2023/07/23 02:50:47;;;;;;;12.73;6.63;;;15.10;99.90;;;;;;5010095;28;20115;-59
2023/07/23 02:53:12;;;;;;;12.50;7.15;;;15.10;99.90;;;;;;5007634;28;20038;-59
2023/07/23 02:55:38;;;;;;;12.20;7.90;;;15.10;99.90;;;;;;5008316;28;20029;-59
2023/07/23 02:58:04;;;;;;;9.80;7.28;;;15.10;99.90;;;;;;5007186;28;20052;-59
2023/07/23 03:00:30;;;;;;;10.88;7.30;;;15.10;99.90;;;;;;5020504;28;20096;-59
2023/07/23 03:02:56;;;;;;;10.85;7.55;;;15.10;99.90;;;;;;5001857;28;20052;-60
2023/07/23 03:05:24;;;;;;;11.85;7.18;;;15.10;99.90;;;;;;4988274;28;20046;-59
2023/07/23 03:07:53;;;;;;;12.07;7.63;;;15.10;99.90;;;;;;5006822;28;20049;-59
2023/07/23 03:10:19;;;;;;;11.95;8.23;;;15.10;99.90;;;;;;5004431;28;20041;-58
2023/07/23 03:12:44;;;;;;;10.50;7.20;;;15.10;99.90;;;;;;5005852;28;20045;-59
2023/07/23 03:15:10;;;;;;;13.50;7.47;;;15.10;99.90;;;;;;5007766;28;20065;-60
2023/07/23 03:17:36;;;;;;;12.57;8.43;;;15.10;99.90;;;;;;4987428;28;20427;-59
2023/07/23 03:20:03;;;;;;;12.15;7.68;;;15.10;99.90;;;;;;4983016;28;20403;-59
2023/07/23 03:22:29;;;;;;;13.20;8.00;;;15.10;99.90;;;;;;4993202;28;20037;-57
2023/07/23 03:24:55;;;;;;;12.75;8.88;;;15.10;99.90;;;;;;4989503;28;20570;-59
2023/07/23 03:27:21;;;;;;;12.65;8.05;;;15.10;99.90;;;;;;4988128;28;20052;-59
2023/07/23 03:29:48;;;;;;;13.48;7.65;;;15.10;99.90;;;;;;5002390;28;20083;-59
2023/07/23 03:32:13;;;;;;;14.85;7.90;;;15.10;99.90;;;;;;4998820;28;20592;-59
2023/07/23 03:34:39;;;;;;;12.00;8.13;;;15.10;99.90;;;;;;5016809;28;20045;-59
2023/07/23 03:37:05;;;;;;;12.82;7.97;;;15.10;99.90;;;;;;5002958;28;20046;-58
2023/07/23 03:39:31;;;;;;;12.10;7.50;;;15.10;99.90;;;;;;4983611;28;20361;-57
2023/07/23 03:41:57;;;;;;;11.68;8.20;;;15.10;99.90;;;;;;5002271;28;20030;-59
2023/07/23 03:44:22;;;;;;;16.42;8.30;;;15.10;99.90;;;;;;5007542;28;20121;-59
2023/07/23 03:47:10;;;;;;;13.60;8.00;;;15.10;99.90;;;;;;5001351;28;20046;-59
2023/07/23 03:49:35;;;;;;;15.75;8.65;;;15.10;99.90;;;;;;5003457;28;20496;-59
2023/07/23 03:52:01;;;;;;;12.07;7.85;;;15.10;99.90;;;;;;5006312;28;20094;-60
2023/07/23 03:54:27;;;;;;;13.57;8.00;;;15.10;99.90;;;;;;5000739;28;20046;-59
2023/07/23 03:56:53;;;;;;;14.73;8.15;;;15.10;99.90;;;;;;5004029;28;20397;-60
2023/07/23 03:59:19;;;;;;;12.20;7.63;;;15.10;99.90;;;;;;5006565;28;20069;-59
2023/07/23 04:01:45;;;;;;;11.60;7.75;;;15.10;99.90;;;;;;5011081;28;20812;-59
2023/07/23 04:04:10;;;;;;;10.45;7.28;;;15.10;99.90;;;;;;4996101;28;20183;-58
2023/07/23 04:06:36;;;;;;;11.77;7.43;;;15.10;99.90;;;;;;5008183;28;20046;-60
2023/07/23 04:09:02;;;;;;;14.07;8.25;;;15.10;99.90;;;;;;5025683;28;20296;-60
2023/07/23 04:11:28;;;;;;;15.52;8.88;;;15.10;99.90;;;;;;4988777;28;20046;-59
2023/07/23 04:13:53;;;;;;;12.85;7.93;;;15.10;99.90;;;;;;5007912;28;20052;-59
2023/07/23 04:16:19;;;;;;;10.80;7.25;;;15.10;99.90;;;;;;5006814;28;20088;-59
2023/07/23 04:18:49;;;;;;;11.43;7.80;;;15.10;99.90;;;;;;5008970;28;21443;-57
2023/07/23 04:21:18;;;;;;;10.35;7.43;;;15.10;99.90;;;;;;5007520;28;20123;-58
2023/07/23 04:23:48;;;;;;;13.70;7.35;;;15.10;99.90;;;;;;5011238;28;20089;-58
2023/07/23 04:26:15;;;;;;;13.13;7.97;;;15.10;99.90;;;;;;5002015;28;20042;-59
2023/07/23 04:28:41;;;;;;;11.73;8.10;;;15.10;99.90;;;;;;5001875;28;20045;-59
2023/07/23 04:31:07;;;;;;;12.48;7.50;;;15.10;99.90;;;;;;5006945;28;20040;-59
2023/07/23 04:33:33;;;;;;;12.52;7.85;;;15.10;99.90;;;;;;4989702;28;20080;-59
2023/07/23 04:35:58;;;;;;;11.82;7.82;;;15.20;99.90;;;;;;5010297;28;20052;-59
2023/07/23 04:38:25;;;;;;;12.00;8.27;;;15.10;99.90;;;;;;5002499;28;20038;-60
2023/07/23 04:40:50;;;;;;;13.13;8.18;;;15.20;99.90;;;;;;5006975;28;20539;-59
2023/07/23 04:43:16;;;;;;;10.82;8.13;;;15.20;99.90;;;;;;5011127;28;20116;-59
2023/07/23 04:45:42;;;;;;;12.18;7.22;;;15.20;99.90;;;;;;5002197;28;20338;-59
2023/07/23 04:48:10;;;;;;;10.93;7.55;;;15.20;99.90;;;;;;4994368;28;20512;-59
2023/07/23 04:50:36;;;;;;;12.63;7.88;;;15.20;99.90;;;;;;5021148;28;20201;-59
2023/07/23 04:53:02;;;;;;;14.90;8.23;;;15.20;99.90;;;;;;4994392;28;20431;-60
2023/07/23 04:55:27;;;;;;;14.38;7.18;;;15.20;99.90;;;;;;5023057;28;20132;-60
2023/07/23 04:57:53;;;;;;;11.65;8.27;;;15.20;99.90;;;;;;4989803;28;20033;-59
2023/07/23 05:00:19;;;;;;;11.45;8.55;;;15.20;99.90;;;;;;4992378;28;20037;-58
2023/07/23 05:02:45;;;;;;;12.77;7.88;;;15.20;99.90;;;;;;5008133;28;20035;-59
2023/07/23 05:05:11;;;;;;;11.15;7.72;;;15.20;99.90;;;;;;5010723;28;20056;-59
2023/07/23 05:07:36;;;;;;;11.50;8.13;;;15.20;99.90;;;;;;4986995;28;20033;-59
2023/07/23 05:10:02;;;;;;;12.32;8.18;;;15.20;99.90;;;;;;4994607;28;20116;-58
2023/07/23 05:12:28;;;;;;;12.23;8.35;;;15.20;99.90;;;;;;5004498;28;20116;-59
2023/07/23 05:15:09;;;;;;;14.48;8.90;;;15.20;99.90;;;;;;5007600;28;20124;-59
2023/07/23 05:17:35;;;;;;;14.20;8.48;;;15.20;99.90;;;;;;5002607;28;20068;-59
2023/07/23 05:20:00;;;;;;;11.68;7.95;;;15.20;99.90;;;;;;5006961;28;20489;-60
2023/07/23 05:22:26;;;;;;;11.50;7.97;;;15.20;99.90;;;;;;5006148;28;20053;-58
2023/07/23 05:24:52;;;;;;;13.18;8.50;;;15.20;99.90;;;;;;5007964;28;20132;-60
2023/07/23 05:27:17;;;;;;;15.90;9.10;;;15.20;99.90;;;;;;5008758;28;20072;-60
2023/07/23 05:29:43;;;;;;;12.18;7.80;;;15.20;99.90;;;;;;4992563;28;20048;-59
2023/07/23 05:32:08;;;;;;;13.38;8.75;;;15.20;99.90;;;;;;5023857;28;20041;-60
2023/07/23 05:34:34;;;;;;;13.80;8.27;;;15.20;99.90;;;;;;5004034;28;20045;-60
2023/07/23 05:37:00;;;;;;;14.60;8.18;;;15.20;99.90;;;;;;4993166;28;20147;-60
2023/07/23 05:39:25;;;;;;;10.93;7.60;;;15.20;99.90;;;;;;4983276;28;20056;-59
2023/07/23 05:41:51;;;;;;;13.30;7.95;;;15.20;99.90;;;;;;5008507;28;20056;-58
2023/07/23 05:44:17;;;;;;;14.82;9.52;;;15.20;99.90;;;;;;5006458;28;20048;-59
2023/07/23 05:46:43;;;;;;;13.65;8.65;;;15.20;99.90;;;;;;5004790;28;20051;-59
2023/07/23 05:49:09;;;;;;;13.10;8.65;;;15.20;99.90;;;;;;5003094;28;20468;-59
2023/07/23 05:51:35;;;;;;;12.55;8.60;;;15.20;99.90;;;;;;4988106;28;20136;-60
2023/07/23 05:54:00;;;;;;;12.57;8.38;;;15.20;99.90;;;;;;4985200;28;20463;-60
2023/07/23 05:56:27;;;;;;;14.95;8.68;;;15.30;99.90;;;;;;5023477;28;20416;-59
2023/07/23 05:58:52;;;;;;;13.98;8.35;;;15.20;99.90;;;;;;5007358;28;20496;-60
2023/07/23 06:01:18;;;;;;;14.10;8.80;;;15.20;99.90;;;;;;5004909;28;20053;-59
2023/07/23 06:03:44;;;;;;;13.20;9.07;;;15.30;99.90;;;;;;4991327;28;20489;-59
2023/07/23 06:06:09;;;;;;;11.98;8.90;;;15.30;99.90;;;;;;4992819;28;20044;-59
2023/07/23 06:08:35;;;;;;;15.60;9.55;;;15.30;99.90;;;;;;4992526;28;20045;-60
2023/07/23 06:11:01;;;;;;;12.85;8.70;;;15.30;99.90;;;;;;5007864;28;20037;-59
2023/07/23 06:13:26;;;;;;;13.73;9.25;;;15.30;99.90;;;;;;5025876;28;20041;-60
2023/07/23 06:15:52;;;;;;;14.05;8.93;;;15.30;99.90;;;;;;4987412;28;20038;-62
2023/07/23 06:18:18;;;;;;;13.10;8.73;;;15.40;99.90;;;;;;4993137;28;20042;-59
2023/07/23 06:20:43;;;;;;;15.02;9.43;;;15.40;99.90;;;;;;5009063;28;20030;-59
2023/07/23 06:23:09;;;;;;;15.60;9.40;;;15.40;99.90;;;;;;5007535;28;20378;-59
2023/07/23 06:25:35;;;;;;;13.48;9.48;;;15.40;99.90;;;;;;4992336;28;20076;-59
2023/07/23 06:28:00;;;;;;;12.52;9.35;;;15.40;99.90;;;;;;4989148;28;20045;-59
2023/07/23 06:30:27;;;;;;;15.00;9.13;;;15.50;99.90;;;;;;5001214;28;20099;-60
2023/07/23 06:32:52;;;;;;;14.00;10.43;;;15.40;99.90;;;;;;5008992;28;20488;-57
2023/07/23 06:35:18;;;;;;;14.38;9.00;;;15.40;99.90;;;;;;5018177;28;20129;-58
2023/07/23 06:37:44;;;;;;;14.35;9.18;;;15.40;99.90;;;;;;5007135;28;20040;-59
2023/07/23 06:40:09;;;;;;;16.40;10.00;;;15.50;99.90;;;;;;5006630;28;20042;-59
2023/07/23 06:42:35;;;;;;;12.50;8.88;;;15.50;99.90;;;;;;5008761;28;20077;-59
2023/07/23 06:45:01;;;;;;;13.98;9.55;;;15.50;99.90;;;;;;4987684;28;20037;-59
2023/07/23 06:47:26;;;;;;;17.20;10.15;;;15.60;99.90;;;;;;5008548;28;20493;-58
2023/07/23 06:49:52;;;;;;;16.58;9.60;;;15.60;99.90;;;;;;5001529;28;20056;-59
2023/07/23 06:52:19;;;;;;;15.38;9.45;;;15.60;99.90;;;;;;4990747;28;20048;-59
2023/07/23 06:54:44;;;;;;;13.85;9.18;;;15.60;99.90;;;;;;5001398;28;20411;-60
2023/07/23 06:57:10;;;;;;;12.70;8.90;;;15.60;99.90;;;;;;5006232;28;20037;-59
2023/07/23 06:59:36;;;;;;;15.43;9.52;;;15.60;99.90;;;;;;5003632;28;20084;-58
2023/07/23 07:02:02;;;;;;;13.23;9.70;;;15.70;99.90;;;;;;4990250;28;20392;-59
2023/07/23 07:04:27;;;;;;;14.15;9.35;;;15.70;99.90;;;;;;5022005;28;20045;-61
2023/07/23 07:06:53;;;;;;;15.05;10.35;;;15.70;99.90;;;;;;5001783;28;20041;-60
2023/07/23 07:09:19;;;;;;;15.02;9.43;;;15.80;99.90;;;;;;5008520;28;20080;-60
2023/07/23 07:11:44;;;;;;;15.50;9.70;;;15.80;99.90;;;;;;5005445;28;20052;-59
2023/07/23 07:14:10;;;;;;;15.43;9.93;;;15.80;99.90;;;;;;4991604;28;20557;-58
2023/07/23 07:16:36;;;;;;;15.65;9.80;;;15.80;99.90;;;;;;5023967;28;20091;-60
2023/07/23 07:19:02;;;;;;;15.65;10.02;;;15.80;99.90;;;;;;5023236;28;20041;-58
2023/07/23 07:21:28;;;;;;;13.73;10.23;;;15.80;99.90;;;;;;5024486;28;20050;-57
2023/07/23 07:23:54;;;;;;;14.63;9.90;;;15.80;99.90;;;;;;5008201;28;20051;-59
2023/07/23 07:26:20;;;;;;;16.38;10.68;;;15.90;99.90;;;;;;5009899;28;20056;-60
2023/07/23 07:28:45;;;;;;;18.67;10.88;;;15.90;99.90;;;;;;4988973;28;20045;-59
2023/07/23 07:31:12;;;;;;;14.80;10.50;;;15.90;99.90;;;;;;5006300;28;20077;-58
2023/07/23 07:33:38;;;;;;;16.38;10.45;;;15.90;99.90;;;;;;5007851;28;20052;-59
2023/07/23 07:36:04;;;;;;;16.77;10.38;;;15.90;99.90;;;;;;5005794;28;20091;-59
2023/07/23 07:38:30;;;;;;;15.48;10.55;;;16.00;99.90;;;;;;5005672;28;20038;-59
2023/07/23 07:40:57;;;;;;;16.38;9.95;;;16.00;99.90;;;;;;5005861;28;20127;-59
2023/07/23 07:43:24;;;;;;;17.90;11.23;;;16.00;99.90;;;;;;4997757;28;20395;-59
2023/07/23 07:45:54;;;;;;;18.13;11.32;;;16.00;99.90;;;;;;5008825;28;20408;-59
2023/07/23 07:48:20;;;;;;;16.90;10.85;;;16.00;99.90;;;;;;4999359;28;20064;-59
2023/07/23 07:50:58;;;;;;;19.10;11.70;;;16.00;99.90;;;;;;5008809;28;20029;-60
2023/07/23 07:53:24;;;;;;;18.40;11.05;;;16.10;99.90;;;;;;4989377;28;20072;-59
2023/07/23 07:55:50;;;;;;;16.33;10.80;;;16.10;99.90;;;;;;5022276;28;20128;-58
2023/07/23 07:58:16;;;;;;;18.08;12.38;;;16.10;99.90;;;;;;5005594;28;20091;-59
2023/07/23 08:00:42;;;;;;;18.95;12.57;;;16.10;99.90;;;;;;4997128;28;20382;-58
2023/07/23 08:03:09;;;;;;;19.40;12.00;;;16.10;99.90;;;;;;5001206;28;20052;-60
2023/07/23 08:05:36;;;;;;;19.70;12.95;;;16.10;99.90;;;;;;5006680;28;20045;-60
2023/07/23 08:08:04;;;;;;;19.92;12.95;;;16.20;99.90;;;;;;5009344;28;20106;-59
2023/07/23 08:10:32;;;;;;;18.83;13.48;;;16.20;99.90;;;;;;5008618;28;20202;-59
2023/07/23 08:13:15;;;;;;;16.83;13.23;;;16.20;99.90;;;;;;5007479;28;20077;-59
2023/07/23 08:15:41;;;;;;;20.45;12.15;;;16.20;99.90;;;;;;4992558;28;20037;-60
2023/07/23 08:18:07;;;;;;;16.90;13.27;;;16.20;99.90;;;;;;5009036;28;20049;-60
2023/07/23 08:20:36;;;;;;;17.08;12.50;;;16.20;99.90;;;;;;4984890;28;20517;-60
2023/07/23 08:23:02;;;;;;;17.55;13.18;;;16.20;99.90;;;;;;4990533;28;20034;-60
2023/07/23 08:25:29;;;;;;;17.55;12.60;;;16.20;99.90;;;;;;5002192;28;20037;-59
2023/07/23 08:28:22;;;;;;;17.40;13.38;;;16.30;99.90;;;;;;5011279;28;20041;-59
2023/07/23 08:30:47;;;;;;;18.08;13.90;;;16.30;99.90;;;;;;5005207;28;20128;-59
2023/07/23 08:33:16;;;;;;;18.20;15.57;;;16.30;99.90;;;;;;5008969;28;20128;-60
2023/07/23 08:35:42;;;;;;;17.13;15.32;;;16.40;99.90;;;;;;5007410;28;20480;-59
2023/07/23 08:38:08;;;;;;;16.63;14.68;;;16.40;99.90;;;;;;5016815;28;20088;-60
2023/07/23 08:40:42;;;;;;;17.15;14.88;;;16.40;99.90;;;;;;5001460;28;20050;-60
2023/07/23 08:43:37;;;;;;;17.38;15.57;;;16.40;99.90;;;;;;4999588;28;20377;-60
2023/07/23 08:46:21;;;;;;;18.38;16.33;;;16.50;99.90;;;;;;5012793;28;20533;-59
2023/07/23 08:49:04;;;;;;;18.88;16.83;;;16.50;99.90;;;;;;4995367;28;20052;-59
2023/07/23 08:51:39;;;;;;;17.27;15.43;;;16.50;99.90;;;;;;5004214;28;20041;-60
2023/07/23 08:54:08;;;;;;;17.33;15.55;;;16.60;99.90;;;;;;5009391;28;20037;-59
2023/07/23 08:56:36;;;;;;;19.90;16.30;;;16.50;99.90;;;;;;4987789;28;20041;-62
2023/07/23 08:59:03;;;;;;;18.67;15.95;;;16.50;99.90;;;;;;5006170;28;20045;-60
2023/07/23 09:01:33;;;;;;;18.33;16.42;;;16.60;99.90;;;;;;4991323;28;20041;-60
2023/07/23 09:04:05;;;;;;;17.38;15.57;;;16.50;99.90;;;;;;5002721;28;20088;-60
2023/07/23 09:06:31;;;;;;;17.90;16.00;;;16.60;99.90;;;;;;5000800;28;20146;-60
2023/07/23 09:09:04;;;;;;;17.45;14.55;;;16.60;99.90;;;;;;5012547;28;20047;-60
2023/07/23 09:11:30;;;;;;;22.42;14.82;;;16.60;99.90;;;;;;5011825;28;20123;-60
2023/07/23 09:14:10;;;;;;;19.80;16.30;;;16.50;99.90;;;;;;5009137;28;20075;-59
2023/07/23 09:16:38;;;;;;;16.45;14.60;;;16.60;99.90;;;;;;5006540;28;20164;-60
2023/07/23 09:19:04;;;;;;;16.02;14.32;;;16.60;99.90;;;;;;5003265;28;20049;-60
2023/07/23 09:21:30;;;;;;;16.02;14.10;;;16.60;99.90;;;;;;5017641;28;20065;-59
2023/07/23 09:23:57;;;;;;;15.27;13.68;;;16.60;99.90;;;;;;5011556;28;20037;-59
2023/07/23 09:26:26;;;;;;;16.17;14.48;;;16.60;99.90;;;;;;5008390;28;20124;-57
2023/07/23 09:28:54;;;;;;;18.27;13.95;;;16.60;99.90;;;;;;5004784;28;20412;-59
2023/07/23 09:31:26;;;;;;;16.98;15.10;;;16.60;99.90;;;;;;4990909;28;20041;-61
2023/07/23 09:33:54;;;;;;;20.08;14.73;;;16.60;99.90;;;;;;5007923;28;20041;-60
2023/07/23 09:36:21;;;;;;;16.77;14.73;;;16.60;99.90;;;;;;4996499;28;20072;-60
2023/07/23 09:39:00;;;;;;;17.40;14.45;;;16.60;99.90;;;;;;5022942;28;20392;-60
2023/07/23 09:41:33;;;;;;;19.58;15.00;;;16.60;99.90;;;;;;5016844;28;20046;-61
2023/07/23 09:44:05;;;;;;;18.63;15.00;;;16.60;99.90;;;;;;5004007;28;20037;-60
2023/07/23 09:46:31;;;;;;;17.48;14.85;;;16.60;99.90;;;;;;5009043;28;20117;-60
2023/07/23 09:48:57;;;;;;;18.88;16.05;;;16.60;99.90;;;;;;5010788;28;20049;-60
2023/07/23 09:51:23;;;;;;;17.67;15.82;;;16.60;99.90;;;;;;5024493;28;20045;-60
2023/07/23 09:53:49;;;;;;;19.27;16.42;;;16.60;99.90;;;;;;5001197;28;20132;-60
2023/07/23 09:56:16;;;;;;;22.13;17.30;;;16.70;99.90;;;;;;5022032;28;20038;-60
2023/07/23 09:58:44;;;;;;;19.95;17.10;;;16.70;99.90;;;;;;5001625;28;20037;-59
2023/07/23 10:01:11;;;;;;;22.55;17.15;;;16.70;99.90;;;;;;5000117;28;20451;-59
2023/07/23 10:03:37;;;;;;;21.30;17.50;;;16.70;99.90;;;;;;5007187;28;20042;-59
2023/07/23 10:06:03;;;;;;;20.52;17.27;;;16.70;99.90;;;;;;5007333;28;20124;-57
2023/07/23 10:08:35;;;;;;;19.73;17.08;;;16.80;99.90;;;;;;5021575;28;20055;-59
2023/07/23 10:11:03;;;;;;;18.60;16.17;;;16.80;99.90;;;;;;4995325;28;20757;-60
2023/07/23 10:13:29;;;;;;;20.23;17.98;;;16.90;99.90;;;;;;4971837;28;20033;-60
2023/07/23 10:15:56;;;;;;;21.02;16.42;;;16.90;99.90;;;;;;5006234;28;20466;-59
2023/07/23 10:18:26;;;;;;;19.80;16.45;;;17.00;99.90;;;;;;4995591;28;20041;-60
2023/07/23 10:20:52;;;;;;;20.88;16.17;;;17.00;99.90;;;;;;4991720;28;20038;-59
2023/07/23 10:23:20;;;;;;;19.55;16.73;;;17.00;99.90;;;;;;5023522;28;20268;-62
2023/07/23 10:25:46;;;;;;;20.38;16.98;;;17.00;99.90;;;;;;4988270;28;20042;-59
2023/07/23 10:28:21;;;;;;;19.88;16.20;;;17.10;99.90;;;;;;5007457;28;20421;-59
2023/07/23 10:30:47;;;;;;;20.10;15.02;;;17.10;99.90;;;;;;5021326;28;20073;-60
2023/07/23 10:33:13;;;;;;;20.85;15.32;;;17.10;99.90;;;;;;5005845;28;20104;-59
2023/07/23 10:35:58;;;;;;;19.50;14.75;;;17.20;99.90;;;;;;5001699;28;20052;-62
2023/07/23 10:38:29;;;;;;;18.95;14.88;;;17.20;99.90;;;;;;4999888;28;20049;-58
2023/07/23 10:40:56;;;;;;;20.10;14.98;;;17.20;99.90;;;;;;5009428;28;20128;-57
2023/07/23 10:43:22;;;;;;;19.75;15.40;;;17.30;99.90;;;;;;5004969;28;20052;-61
2023/07/23 10:46:05;;;;;;;17.65;14.35;;;17.30;99.90;;;;;;5003732;28;20045;-60
2023/07/23 10:48:51;;;;;;;18.50;15.10;;;17.40;99.90;;;;;;5020577;28;20045;-58
2023/07/23 10:51:21;;;;;;;17.40;15.48;;;17.30;99.90;;;;;;5006151;28;20076;-58
2023/07/23 10:54:02;;;;;;;20.83;16.48;;;17.40;99.90;;;;;;5001538;28;20048;-61
2023/07/23 10:56:33;;;;;;;19.63;15.48;;;17.40;99.90;;;;;;5005768;28;20120;-60
2023/07/23 10:59:04;;;;;;;20.02;15.50;;;17.40;99.90;;;;;;4992110;28;20084;-62
2023/07/23 11:01:35;;;;;;;19.85;15.85;;;17.40;99.90;;;;;;5008948;28;20053;-60
2023/07/23 11:04:10;;;;;;;20.17;15.20;;;17.40;99.90;;;;;;5004830;28;20125;-61
2023/07/23 11:06:36;;;;;;;17.58;15.20;;;17.50;99.90;;;;;;4988902;28;20121;-62
2023/07/23 11:09:07;;;;;;;20.92;15.45;;;17.50;99.90;;;;;;5005905;28;20081;-61
2023/07/23 11:11:37;;;;;;;18.92;15.52;;;17.40;99.90;;;;;;5005193;28;20099;-60
2023/07/23 11:14:16;;;;;;;19.60;14.25;;;17.40;99.90;;;;;;5001883;28;20108;-58
2023/07/23 11:16:42;;;;;;;20.20;14.32;;;17.40;99.90;;;;;;5020680;28;20034;-61
2023/07/23 11:19:08;;;;;;;19.20;14.65;;;17.40;99.90;;;;;;4990747;28;20095;-60
2023/07/23 11:21:34;;;;;;;18.90;14.85;;;17.40;99.90;;;;;;4992743;28;20050;-61
2023/07/23 11:23:59;;;;;;;16.35;14.35;;;17.40;99.90;;;;;;5016347;28;20033;-61
2023/07/23 11:26:25;;;;;;;22.25;14.50;;;17.40;99.90;;;;;;4990453;28;20335;-61
2023/07/23 11:28:51;;;;;;;17.20;14.35;;;17.30;99.90;;;;;;5006944;28;20397;-61
2023/07/23 11:31:17;;;;;;;19.33;14.23;;;17.30;99.90;;;;;;5022522;28;20034;-58
2023/07/23 11:33:43;;;;;;;21.90;14.60;;;17.30;99.90;;;;;;5026275;28;20045;-61
2023/07/23 11:36:09;;;;;;;19.42;13.35;;;17.30;99.90;;;;;;5009706;28;20042;-61
2023/07/23 11:38:35;;;;;;;17.92;15.13;;;17.30;99.90;;;;;;5015909;28;20053;-61
2023/07/23 11:41:01;;;;;;;17.58;13.95;;;17.30;99.90;;;;;;5000409;28;20495;-60
2023/07/23 11:43:28;;;;;;;18.42;15.30;;;17.30;99.90;;;;;;4996343;28;20053;-60
2023/07/23 11:45:53;;;;;;;18.48;15.35;;;17.30;99.90;;;;;;5001597;28;20110;-60
2023/07/23 11:48:21;;;;;;;16.95;14.10;;;17.30;99.90;;;;;;5003808;28;20681;-61
2023/07/23 11:50:49;;;;;;;18.73;14.70;;;17.20;99.90;;;;;;5002471;28;20157;-60
2023/07/23 11:53:31;;;;;;;17.48;14.40;;;17.30;99.90;;;;;;5006589;28;20083;-61
2023/07/23 11:56:13;;;;;;;16.25;14.55;;;17.30;99.90;;;;;;5003164;28;20050;-60
2023/07/23 11:58:40;;;;;;;16.38;14.50;;;17.30;99.90;;;;;;5023073;28;20033;-61
2023/07/23 12:01:08;;;;;;;16.48;14.60;;;17.30;99.90;;;;;;4985346;28;20055;-60
2023/07/23 12:03:41;;;;;;;18.13;14.82;;;17.40;99.90;;;;;;5005610;28;20038;-61
2023/07/23 12:06:09;;;;;;;18.80;14.88;;;17.40;99.90;;;;;;4999983;28;20108;-60
2023/07/23 12:08:38;;;;;;;16.17;13.63;;;17.40;99.90;;;;;;5007255;28;20052;-61
2023/07/23 12:11:11;;;;;;;16.10;13.07;;;17.40;99.90;;;;;;5005826;28;20045;-58
2023/07/23 12:13:55;;;;;;;13.55;12.15;;;17.50;99.90;;;;;;5011744;28;20052;-58
2023/07/23 12:16:34;;;;;;;15.15;12.40;;;17.60;99.90;;;;;;5015875;28;20065;-60
2023/07/23 12:19:06;;;;;;;12.88;11.63;;;17.70;99.90;;;;;;5025648;28;20099;-60
2023/07/23 12:21:40;;;;;;;13.85;11.50;;;17.80;99.90;;;;;;5000793;28;20042;-59
2023/07/23 12:24:11;;;;;;;12.75;11.45;;;17.90;99.90;;;;;;5017376;28;20242;-60
2023/07/23 12:26:37;;;;;;;14.10;12.63;;;18.00;99.90;;;;;;4998813;28;20041;-60
2023/07/23 12:29:04;;;;;;;13.40;12.10;;;18.10;99.90;;;;;;4993273;28;20056;-59
2023/07/23 12:31:30;;;;;;;12.98;11.60;;;18.10;99.90;;;;;;5004058;28;20044;-60
2023/07/23 12:33:56;;;;;;;13.68;11.13;;;18.20;99.90;;;;;;5016351;28;20166;-60
2023/07/23 12:36:22;;;;;;;12.60;10.77;;;18.30;99.90;;;;;;5000937;28;20407;-59